sensor_id;sensor_type;location;lat;lon;timestamp;P1;durP1;ratioP1;P2;durP2;ratioP2
16075;SDS011;8142;48.242;11.644;2022-07-23T00:00:31;7.77;;;6.97;;
16075;SDS011;8142;48.242;11.644;2022-07-23T00:02:57;8.43;;;6.90;;
16075;SDS011;8142;48.242;11.644;2022-07-23T00:05:22;8.00;;;7.20;;
16075;SDS011;8142;48.242;11.644;2022-07-23T00:07:48;7.73;;;6.93;;
16075;SDS011;8142;48.242;11.644;2022-07-23T00:10:14;7.87;;;7.07;;
16075;SDS011;8142;48.242;11.644;2022-07-23T00:12:40;7.93;;;7.17;;
16075;SDS011;8142;48.242;11.644;2022-07-23T00:15:06;9.40;;;6.80;;
16075;SDS011;8142;48.242;11.644;2022-07-23T00:17:33;7.93;;;6.90;;
16075;SDS011;8142;48.242;11.644;2022-07-23T00:19:59;8.33;;;6.77;;
16075;SDS011;8142;48.242;11.644;2022-07-23T00:22:25;8.43;;;6.97;;
16075;SDS011;8142;48.242;11.644;2022-07-23T00:24:51;8.53;;;6.90;;
16075;SDS011;8142;48.242;11.644;2022-07-23T00:27:17;6.83;;;6.13;;
16075;SDS011;8142;48.242;11.644;2022-07-23T00:29:42;8.67;;;6.47;;
16075;SDS011;8142;48.242;11.644;2022-07-23T00:32:08;7.00;;;6.40;;
16075;SDS011;8142;48.242;11.644;2022-07-23T00:34:34;6.90;;;6.20;;
16075;SDS011;8142;48.242;11.644;2022-07-23T00:37:00;7.43;;;6.30;;
16075;SDS011;8142;48.242;11.644;2022-07-23T00:39:25;6.20;;;5.60;;
16075;SDS011;8142;48.242;11.644;2022-07-23T00:41:51;7.67;;;6.23;;
16075;SDS011;8142;48.242;11.644;2022-07-23T00:44:18;6.97;;;6.27;;
16075;SDS011;8142;48.242;11.644;2022-07-23T00:46:50;8.00;;;6.67;;
16075;SDS011;8142;48.242;11.644;2022-07-23T00:49:18;7.30;;;6.27;;
16075;SDS011;8142;48.242;11.644;2022-07-23T00:51:45;6.93;;;6.23;;
16075;SDS011;8142;48.242;11.644;2022-07-23T00:54:12;7.10;;;6.40;;
16075;SDS011;8142;48.242;11.644;2022-07-23T00:56:38;7.23;;;6.53;;
16075;SDS011;8142;48.242;11.644;2022-07-23T00:59:06;7.80;;;6.47;;
16075;SDS011;8142;48.242;11.644;2022-07-23T01:01:32;6.80;;;6.20;;
16075;SDS011;8142;48.242;11.644;2022-07-23T01:03:58;7.33;;;6.10;;
16075;SDS011;8142;48.242;11.644;2022-07-23T01:06:24;6.77;;;6.07;;
16075;SDS011;8142;48.242;11.644;2022-07-23T01:08:50;6.77;;;6.17;;
16075;SDS011;8142;48.242;11.644;2022-07-23T01:11:17;6.83;;;6.13;;
16075;SDS011;8142;48.242;11.644;2022-07-23T01:13:44;7.20;;;6.07;;
16075;SDS011;8142;48.242;11.644;2022-07-23T01:16:10;7.40;;;5.83;;
16075;SDS011;8142;48.242;11.644;2022-07-23T01:18:36;8.10;;;6.13;;
16075;SDS011;8142;48.242;11.644;2022-07-23T01:21:02;10.27;;;6.80;;
16075;SDS011;8142;48.242;11.644;2022-07-23T01:23:28;10.27;;;6.70;;
16075;SDS011;8142;48.242;11.644;2022-07-23T01:25:54;9.57;;;7.90;;
16075;SDS011;8142;48.242;11.644;2022-07-23T01:28:20;13.83;;;8.57;;
16075;SDS011;8142;48.242;11.644;2022-07-23T01:30:47;9.73;;;7.87;;
16075;SDS011;8142;48.242;11.644;2022-07-23T01:33:13;14.37;;;8.20;;
16075;SDS011;8142;48.242;11.644;2022-07-23T01:35:39;15.20;;;7.90;;
16075;SDS011;8142;48.242;11.644;2022-07-23T01:38:05;13.83;;;7.20;;
16075;SDS011;8142;48.242;11.644;2022-07-23T01:40:31;9.20;;;6.73;;
16075;SDS011;8142;48.242;11.644;2022-07-23T01:42:57;7.63;;;6.27;;
16075;SDS011;8142;48.242;11.644;2022-07-23T01:45:23;11.73;;;6.33;;
16075;SDS011;8142;48.242;11.644;2022-07-23T01:47:49;7.37;;;5.73;;
16075;SDS011;8142;48.242;11.644;2022-07-23T01:50:15;7.87;;;6.07;;
16075;SDS011;8142;48.242;11.644;2022-07-23T01:52:41;7.93;;;6.33;;
16075;SDS011;8142;48.242;11.644;2022-07-23T01:55:07;9.50;;;6.63;;
16075;SDS011;8142;48.242;11.644;2022-07-23T01:57:33;13.63;;;6.43;;
16075;SDS011;8142;48.242;11.644;2022-07-23T01:59:59;9.70;;;6.30;;
16075;SDS011;8142;48.242;11.644;2022-07-23T02:02:25;10.37;;;6.00;;
16075;SDS011;8142;48.242;11.644;2022-07-23T02:04:50;9.07;;;5.60;;
16075;SDS011;8142;48.242;11.644;2022-07-23T02:07:16;10.80;;;5.57;;
16075;SDS011;8142;48.242;11.644;2022-07-23T02:09:42;8.23;;;5.93;;
16075;SDS011;8142;48.242;11.644;2022-07-23T02:12:08;8.83;;;5.80;;
16075;SDS011;8142;48.242;11.644;2022-07-23T02:14:34;7.23;;;5.67;;
16075;SDS011;8142;48.242;11.644;2022-07-23T02:17:00;6.87;;;5.23;;
16075;SDS011;8142;48.242;11.644;2022-07-23T02:19:25;8.30;;;5.60;;
16075;SDS011;8142;48.242;11.644;2022-07-23T02:21:52;7.57;;;5.47;;
16075;SDS011;8142;48.242;11.644;2022-07-23T02:24:19;7.83;;;5.40;;
16075;SDS011;8142;48.242;11.644;2022-07-23T02:26:46;8.33;;;5.27;;
16075;SDS011;8142;48.242;11.644;2022-07-23T02:29:12;6.43;;;5.00;;
16075;SDS011;8142;48.242;11.644;2022-07-23T02:31:38;6.27;;;5.10;;
16075;SDS011;8142;48.242;11.644;2022-07-23T02:34:04;6.07;;;4.97;;
16075;SDS011;8142;48.242;11.644;2022-07-23T02:36:30;7.63;;;5.00;;
16075;SDS011;8142;48.242;11.644;2022-07-23T02:38:56;6.53;;;4.40;;
16075;SDS011;8142;48.242;11.644;2022-07-23T02:41:22;9.00;;;5.30;;
16075;SDS011;8142;48.242;11.644;2022-07-23T02:43:47;13.07;;;4.87;;
16075;SDS011;8142;48.242;11.644;2022-07-23T02:46:13;10.43;;;5.00;;
16075;SDS011;8142;48.242;11.644;2022-07-23T02:48:39;10.03;;;4.83;;
16075;SDS011;8142;48.242;11.644;2022-07-23T02:51:05;7.87;;;4.53;;
16075;SDS011;8142;48.242;11.644;2022-07-23T02:53:31;5.93;;;4.10;;
16075;SDS011;8142;48.242;11.644;2022-07-23T02:55:57;5.03;;;4.17;;
16075;SDS011;8142;48.242;11.644;2022-07-23T02:58:23;6.17;;;4.20;;
16075;SDS011;8142;48.242;11.644;2022-07-23T03:00:50;4.90;;;4.20;;
16075;SDS011;8142;48.242;11.644;2022-07-23T03:03:16;8.77;;;4.40;;
16075;SDS011;8142;48.242;11.644;2022-07-23T03:05:41;7.80;;;5.20;;
16075;SDS011;8142;48.242;11.644;2022-07-23T03:08:07;7.70;;;5.10;;
16075;SDS011;8142;48.242;11.644;2022-07-23T03:10:33;8.17;;;5.50;;
16075;SDS011;8142;48.242;11.644;2022-07-23T03:12:59;6.83;;;5.50;;
16075;SDS011;8142;48.242;11.644;2022-07-23T03:15:25;6.40;;;5.33;;
16075;SDS011;8142;48.242;11.644;2022-07-23T03:17:50;5.50;;;5.00;;
16075;SDS011;8142;48.242;11.644;2022-07-23T03:20:16;7.87;;;5.63;;
16075;SDS011;8142;48.242;11.644;2022-07-23T03:22:42;6.47;;;5.40;;
16075;SDS011;8142;48.242;11.644;2022-07-23T03:25:08;7.83;;;5.70;;
16075;SDS011;8142;48.242;11.644;2022-07-23T03:27:34;7.10;;;5.20;;
16075;SDS011;8142;48.242;11.644;2022-07-23T03:30:00;9.77;;;5.90;;
16075;SDS011;8142;48.242;11.644;2022-07-23T03:32:26;7.97;;;5.50;;
16075;SDS011;8142;48.242;11.644;2022-07-23T03:34:52;7.70;;;5.63;;
16075;SDS011;8142;48.242;11.644;2022-07-23T03:37:19;7.00;;;5.50;;
16075;SDS011;8142;48.242;11.644;2022-07-23T03:39:45;8.77;;;5.50;;
16075;SDS011;8142;48.242;11.644;2022-07-23T03:42:11;6.63;;;5.37;;
16075;SDS011;8142;48.242;11.644;2022-07-23T03:44:36;6.67;;;4.80;;
16075;SDS011;8142;48.242;11.644;2022-07-23T03:47:03;7.93;;;4.97;;
16075;SDS011;8142;48.242;11.644;2022-07-23T03:49:30;6.13;;;5.13;;
16075;SDS011;8142;48.242;11.644;2022-07-23T03:51:56;5.60;;;4.87;;
16075;SDS011;8142;48.242;11.644;2022-07-23T03:54:22;5.93;;;4.67;;
16075;SDS011;8142;48.242;11.644;2022-07-23T03:56:47;6.47;;;4.73;;
16075;SDS011;8142;48.242;11.644;2022-07-23T03:59:13;5.13;;;4.60;;
16075;SDS011;8142;48.242;11.644;2022-07-23T04:01:39;5.07;;;4.57;;
16075;SDS011;8142;48.242;11.644;2022-07-23T04:04:05;5.17;;;4.00;;
16075;SDS011;8142;48.242;11.644;2022-07-23T04:06:31;4.23;;;3.83;;
16075;SDS011;8142;48.242;11.644;2022-07-23T04:08:57;6.17;;;4.17;;
16075;SDS011;8142;48.242;11.644;2022-07-23T04:11:23;4.30;;;3.90;;
16075;SDS011;8142;48.242;11.644;2022-07-23T04:13:49;6.33;;;4.10;;
16075;SDS011;8142;48.242;11.644;2022-07-23T04:16:15;4.57;;;4.17;;
16075;SDS011;8142;48.242;11.644;2022-07-23T04:18:41;5.07;;;4.30;;
16075;SDS011;8142;48.242;11.644;2022-07-23T04:21:07;4.50;;;3.80;;
16075;SDS011;8142;48.242;11.644;2022-07-23T04:23:33;4.10;;;3.70;;
16075;SDS011;8142;48.242;11.644;2022-07-23T04:25:58;6.93;;;4.33;;
16075;SDS011;8142;48.242;11.644;2022-07-23T04:28:24;4.63;;;4.20;;
16075;SDS011;8142;48.242;11.644;2022-07-23T04:30:50;5.87;;;4.40;;
16075;SDS011;8142;48.242;11.644;2022-07-23T04:33:16;5.70;;;4.80;;
16075;SDS011;8142;48.242;11.644;2022-07-23T04:35:42;5.20;;;4.70;;
16075;SDS011;8142;48.242;11.644;2022-07-23T04:38:08;5.50;;;4.83;;
16075;SDS011;8142;48.242;11.644;2022-07-23T04:40:34;5.40;;;4.90;;
16075;SDS011;8142;48.242;11.644;2022-07-23T04:43:00;6.60;;;4.90;;
16075;SDS011;8142;48.242;11.644;2022-07-23T04:45:26;6.17;;;4.70;;
16075;SDS011;8142;48.242;11.644;2022-07-23T04:47:52;5.73;;;4.77;;
16075;SDS011;8142;48.242;11.644;2022-07-23T04:50:17;5.93;;;4.63;;
16075;SDS011;8142;48.242;11.644;2022-07-23T04:52:47;5.57;;;5.07;;
16075;SDS011;8142;48.242;11.644;2022-07-23T04:55:13;5.27;;;4.60;;
16075;SDS011;8142;48.242;11.644;2022-07-23T04:57:40;5.20;;;4.67;;
16075;SDS011;8142;48.242;11.644;2022-07-23T05:00:06;6.10;;;4.83;;
16075;SDS011;8142;48.242;11.644;2022-07-23T05:02:33;6.43;;;5.07;;
16075;SDS011;8142;48.242;11.644;2022-07-23T05:04:59;5.80;;;5.20;;
16075;SDS011;8142;48.242;11.644;2022-07-23T05:07:25;4.87;;;4.47;;
16075;SDS011;8142;48.242;11.644;2022-07-23T05:09:51;5.73;;;4.67;;
16075;SDS011;8142;48.242;11.644;2022-07-23T05:12:17;6.90;;;5.20;;
16075;SDS011;8142;48.242;11.644;2022-07-23T05:14:43;6.70;;;4.90;;
16075;SDS011;8142;48.242;11.644;2022-07-23T05:17:08;5.93;;;5.20;;
16075;SDS011;8142;48.242;11.644;2022-07-23T05:19:34;5.60;;;5.10;;
16075;SDS011;8142;48.242;11.644;2022-07-23T05:22:00;6.17;;;5.00;;
16075;SDS011;8142;48.242;11.644;2022-07-23T05:24:26;5.30;;;4.80;;
16075;SDS011;8142;48.242;11.644;2022-07-23T05:26:52;7.80;;;5.50;;
16075;SDS011;8142;48.242;11.644;2022-07-23T05:29:18;6.43;;;5.10;;
16075;SDS011;8142;48.242;11.644;2022-07-23T05:31:44;6.00;;;5.40;;
16075;SDS011;8142;48.242;11.644;2022-07-23T05:34:10;6.03;;;5.37;;
16075;SDS011;8142;48.242;11.644;2022-07-23T05:36:36;6.77;;;5.57;;
16075;SDS011;8142;48.242;11.644;2022-07-23T05:39:02;5.97;;;4.77;;
16075;SDS011;8142;48.242;11.644;2022-07-23T05:41:28;6.20;;;5.60;;
16075;SDS011;8142;48.242;11.644;2022-07-23T05:43:54;7.27;;;5.23;;
16075;SDS011;8142;48.242;11.644;2022-07-23T05:46:20;6.77;;;5.90;;
16075;SDS011;8142;48.242;11.644;2022-07-23T05:48:46;6.20;;;5.60;;
16075;SDS011;8142;48.242;11.644;2022-07-23T05:51:21;6.23;;;5.60;;
16075;SDS011;8142;48.242;11.644;2022-07-23T05:53:48;7.70;;;5.37;;
16075;SDS011;8142;48.242;11.644;2022-07-23T05:56:15;6.10;;;5.50;;
16075;SDS011;8142;48.242;11.644;2022-07-23T05:58:41;7.03;;;5.93;;
16075;SDS011;8142;48.242;11.644;2022-07-23T06:01:08;7.70;;;5.73;;
16075;SDS011;8142;48.242;11.644;2022-07-23T06:03:34;6.60;;;6.00;;
16075;SDS011;8142;48.242;11.644;2022-07-23T06:06:00;6.80;;;5.30;;
16075;SDS011;8142;48.242;11.644;2022-07-23T06:08:26;7.10;;;5.70;;
16075;SDS011;8142;48.242;11.644;2022-07-23T06:10:52;7.00;;;6.00;;
16075;SDS011;8142;48.242;11.644;2022-07-23T06:13:18;8.37;;;6.40;;
16075;SDS011;8142;48.242;11.644;2022-07-23T06:15:44;7.10;;;6.13;;
16075;SDS011;8142;48.242;11.644;2022-07-23T06:18:10;6.83;;;6.13;;
16075;SDS011;8142;48.242;11.644;2022-07-23T06:20:36;6.73;;;6.00;;
16075;SDS011;8142;48.242;11.644;2022-07-23T06:23:01;5.50;;;5.00;;
16075;SDS011;8142;48.242;11.644;2022-07-23T06:25:28;5.73;;;5.20;;
16075;SDS011;8142;48.242;11.644;2022-07-23T06:27:54;7.40;;;6.20;;
16075;SDS011;8142;48.242;11.644;2022-07-23T06:30:20;7.33;;;6.47;;
16075;SDS011;8142;48.242;11.644;2022-07-23T06:32:46;7.57;;;6.63;;
16075;SDS011;8142;48.242;11.644;2022-07-23T06:35:12;6.93;;;6.20;;
16075;SDS011;8142;48.242;11.644;2022-07-23T06:37:38;7.53;;;6.63;;
16075;SDS011;8142;48.242;11.644;2022-07-23T06:40:04;7.90;;;6.47;;
16075;SDS011;8142;48.242;11.644;2022-07-23T06:42:31;6.83;;;6.13;;
16075;SDS011;8142;48.242;11.644;2022-07-23T06:44:56;6.50;;;5.90;;
16075;SDS011;8142;48.242;11.644;2022-07-23T06:47:22;6.33;;;5.73;;
16075;SDS011;8142;48.242;11.644;2022-07-23T06:49:48;7.27;;;5.70;;
16075;SDS011;8142;48.242;11.644;2022-07-23T06:52:14;5.20;;;4.70;;
16075;SDS011;8142;48.242;11.644;2022-07-23T06:54:40;5.37;;;4.87;;
16075;SDS011;8142;48.242;11.644;2022-07-23T06:57:06;7.00;;;6.30;;
16075;SDS011;8142;48.242;11.644;2022-07-23T06:59:32;7.07;;;6.00;;
16075;SDS011;8142;48.242;11.644;2022-07-23T07:01:58;6.50;;;5.90;;
16075;SDS011;8142;48.242;11.644;2022-07-23T07:04:24;9.23;;;6.27;;
16075;SDS011;8142;48.242;11.644;2022-07-23T07:06:50;7.13;;;6.20;;
16075;SDS011;8142;48.242;11.644;2022-07-23T07:09:16;7.63;;;6.23;;
16075;SDS011;8142;48.242;11.644;2022-07-23T07:11:43;6.73;;;6.03;;
16075;SDS011;8142;48.242;11.644;2022-07-23T07:14:09;9.63;;;6.47;;
16075;SDS011;8142;48.242;11.644;2022-07-23T07:16:35;9.87;;;6.30;;
16075;SDS011;8142;48.242;11.644;2022-07-23T07:19:00;7.93;;;7.13;;
16075;SDS011;8142;48.242;11.644;2022-07-23T07:21:26;7.50;;;6.77;;
16075;SDS011;8142;48.242;11.644;2022-07-23T07:23:52;7.77;;;6.27;;
16075;SDS011;8142;48.242;11.644;2022-07-23T07:26:18;5.93;;;5.40;;
16075;SDS011;8142;48.242;11.644;2022-07-23T07:28:44;7.60;;;5.67;;
16075;SDS011;8142;48.242;11.644;2022-07-23T07:31:10;9.20;;;5.40;;
16075;SDS011;8142;48.242;11.644;2022-07-23T07:33:36;7.50;;;5.40;;
16075;SDS011;8142;48.242;11.644;2022-07-23T07:36:02;7.60;;;6.20;;
16075;SDS011;8142;48.242;11.644;2022-07-23T07:38:29;7.33;;;6.07;;
16075;SDS011;8142;48.242;11.644;2022-07-23T07:40:55;6.57;;;5.87;;
16075;SDS011;8142;48.242;11.644;2022-07-23T07:43:21;6.73;;;6.00;;
16075;SDS011;8142;48.242;11.644;2022-07-23T07:45:47;6.27;;;5.60;;
16075;SDS011;8142;48.242;11.644;2022-07-23T07:48:13;7.53;;;6.47;;
16075;SDS011;8142;48.242;11.644;2022-07-23T07:50:39;11.47;;;6.77;;
16075;SDS011;8142;48.242;11.644;2022-07-23T07:53:05;9.00;;;5.93;;
16075;SDS011;8142;48.242;11.644;2022-07-23T07:55:31;7.67;;;5.57;;
16075;SDS011;8142;48.242;11.644;2022-07-23T07:57:57;7.03;;;5.77;;
16075;SDS011;8142;48.242;11.644;2022-07-23T08:00:23;6.30;;;5.70;;
16075;SDS011;8142;48.242;11.644;2022-07-23T08:02:50;7.50;;;5.67;;
16075;SDS011;8142;48.242;11.644;2022-07-23T08:05:20;6.20;;;5.60;;
16075;SDS011;8142;48.242;11.644;2022-07-23T08:07:47;6.80;;;6.07;;
16075;SDS011;8142;48.242;11.644;2022-07-23T08:10:13;8.10;;;5.70;;
16075;SDS011;8142;48.242;11.644;2022-07-23T08:15:13;6.80;;;5.57;;
16075;SDS011;8142;48.242;11.644;2022-07-23T08:17:43;5.87;;;5.17;;
16075;SDS011;8142;48.242;11.644;2022-07-23T08:20:11;6.53;;;5.03;;
16075;SDS011;8142;48.242;11.644;2022-07-23T08:25:19;6.43;;;5.70;;
16075;SDS011;8142;48.242;11.644;2022-07-23T08:27:47;8.40;;;5.57;;
16075;SDS011;8142;48.242;11.644;2022-07-23T08:30:14;5.97;;;5.37;;
16075;SDS011;8142;48.242;11.644;2022-07-23T08:33:15;5.93;;;5.10;;
16075;SDS011;8142;48.242;11.644;2022-07-23T08:35:42;6.10;;;5.50;;
16075;SDS011;8142;48.242;11.644;2022-07-23T08:38:12;5.87;;;5.27;;
16075;SDS011;8142;48.242;11.644;2022-07-23T08:40:41;6.57;;;5.40;;
16075;SDS011;8142;48.242;11.644;2022-07-23T08:43:09;6.83;;;6.13;;
16075;SDS011;8142;48.242;11.644;2022-07-23T08:45:44;7.20;;;6.50;;
16075;SDS011;8142;48.242;11.644;2022-07-23T08:48:11;7.03;;;6.33;;
16075;SDS011;8142;48.242;11.644;2022-07-23T08:50:42;7.67;;;5.93;;
16075;SDS011;8142;48.242;11.644;2022-07-23T08:53:09;6.50;;;5.90;;
16075;SDS011;8142;48.242;11.644;2022-07-23T08:55:35;7.47;;;6.63;;
16075;SDS011;8142;48.242;11.644;2022-07-23T08:58:01;7.77;;;6.97;;
16075;SDS011;8142;48.242;11.644;2022-07-23T09:00:36;9.07;;;7.17;;
16075;SDS011;8142;48.242;11.644;2022-07-23T09:03:17;8.30;;;6.73;;
16075;SDS011;8142;48.242;11.644;2022-07-23T09:05:49;8.00;;;6.90;;
16075;SDS011;8142;48.242;11.644;2022-07-23T09:08:16;8.33;;;6.23;;
16075;SDS011;8142;48.242;11.644;2022-07-23T09:13:24;8.20;;;6.90;;
16075;SDS011;8142;48.242;11.644;2022-07-23T09:16:11;7.47;;;6.77;;
16075;SDS011;8142;48.242;11.644;2022-07-23T09:18:41;7.63;;;6.70;;
16075;SDS011;8142;48.242;11.644;2022-07-23T09:24:06;7.67;;;6.20;;
16075;SDS011;8142;48.242;11.644;2022-07-23T09:26:47;7.30;;;6.60;;
16075;SDS011;8142;48.242;11.644;2022-07-23T09:29:18;7.60;;;6.80;;
16075;SDS011;8142;48.242;11.644;2022-07-23T09:31:49;7.87;;;6.67;;
16075;SDS011;8142;48.242;11.644;2022-07-23T09:34:17;9.43;;;7.00;;
16075;SDS011;8142;48.242;11.644;2022-07-23T09:36:52;7.10;;;6.40;;
16075;SDS011;8142;48.242;11.644;2022-07-23T09:39:27;7.23;;;6.53;;
16075;SDS011;8142;48.242;11.644;2022-07-23T09:41:57;7.70;;;6.90;;
16075;SDS011;8142;48.242;11.644;2022-07-23T09:44:40;7.93;;;7.07;;
16075;SDS011;8142;48.242;11.644;2022-07-23T09:47:07;7.70;;;6.90;;
16075;SDS011;8142;48.242;11.644;2022-07-23T09:49:33;8.10;;;6.53;;
16075;SDS011;8142;48.242;11.644;2022-07-23T09:51:59;8.83;;;6.30;;
16075;SDS011;8142;48.242;11.644;2022-07-23T09:54:31;7.23;;;5.87;;
16075;SDS011;8142;48.242;11.644;2022-07-23T09:57:00;6.60;;;5.90;;
16075;SDS011;8142;48.242;11.644;2022-07-23T09:59:38;7.50;;;6.07;;
16075;SDS011;8142;48.242;11.644;2022-07-23T10:02:05;8.50;;;6.37;;
16075;SDS011;8142;48.242;11.644;2022-07-23T10:04:35;7.13;;;6.43;;
16075;SDS011;8142;48.242;11.644;2022-07-23T10:07:02;7.40;;;6.40;;
16075;SDS011;8142;48.242;11.644;2022-07-23T10:09:31;7.87;;;6.47;;
16075;SDS011;8142;48.242;11.644;2022-07-23T10:12:00;6.87;;;6.13;;
16075;SDS011;8142;48.242;11.644;2022-07-23T10:14:48;7.40;;;6.40;;
16075;SDS011;8142;48.242;11.644;2022-07-23T10:17:15;7.00;;;6.30;;
16075;SDS011;8142;48.242;11.644;2022-07-23T10:19:41;9.87;;;6.43;;
16075;SDS011;8142;48.242;11.644;2022-07-23T10:22:14;7.37;;;5.93;;
16075;SDS011;8142;48.242;11.644;2022-07-23T10:30:05;7.87;;;6.17;;
16075;SDS011;8142;48.242;11.644;2022-07-23T10:38:28;7.70;;;6.20;;
16075;SDS011;8142;48.242;11.644;2022-07-23T10:41:03;6.80;;;6.10;;
16075;SDS011;8142;48.242;11.644;2022-07-23T10:43:29;6.90;;;5.60;;
16075;SDS011;8142;48.242;11.644;2022-07-23T10:45:56;6.43;;;5.83;;
16075;SDS011;8142;48.242;11.644;2022-07-23T10:49:30;7.80;;;6.10;;
16075;SDS011;8142;48.242;11.644;2022-07-23T10:54:49;6.97;;;5.73;;
16075;SDS011;8142;48.242;11.644;2022-07-23T10:57:26;6.37;;;5.33;;
16075;SDS011;8142;48.242;11.644;2022-07-23T11:02:31;7.10;;;5.43;;
16075;SDS011;8142;48.242;11.644;2022-07-23T11:05:08;6.70;;;5.50;;
16075;SDS011;8142;48.242;11.644;2022-07-23T11:07:35;6.53;;;5.57;;
16075;SDS011;8142;48.242;11.644;2022-07-23T11:10:37;5.40;;;4.90;;
16075;SDS011;8142;48.242;11.644;2022-07-23T11:19:09;9.43;;;5.07;;
16075;SDS011;8142;48.242;11.644;2022-07-23T11:24:08;5.57;;;5.07;;
16075;SDS011;8142;48.242;11.644;2022-07-23T11:32:01;5.80;;;5.20;;
16075;SDS011;8142;48.242;11.644;2022-07-23T11:34:45;5.43;;;4.87;;
16075;SDS011;8142;48.242;11.644;2022-07-23T11:37:15;6.90;;;5.47;;
16075;SDS011;8142;48.242;11.644;2022-07-23T11:40:00;5.53;;;5.03;;
16075;SDS011;8142;48.242;11.644;2022-07-23T11:42:27;6.23;;;5.20;;
16075;SDS011;8142;48.242;11.644;2022-07-23T11:44:53;6.33;;;5.03;;
16075;SDS011;8142;48.242;11.644;2022-07-23T11:47:23;6.90;;;5.23;;
16075;SDS011;8142;48.242;11.644;2022-07-23T11:49:55;6.43;;;5.13;;
16075;SDS011;8142;48.242;11.644;2022-07-23T11:52:24;6.03;;;5.37;;
16075;SDS011;8142;48.242;11.644;2022-07-23T11:57:16;6.40;;;4.90;;
16075;SDS011;8142;48.242;11.644;2022-07-23T11:59:43;5.70;;;5.20;;
16075;SDS011;8142;48.242;11.644;2022-07-23T12:02:11;6.50;;;5.83;;
16075;SDS011;8142;48.242;11.644;2022-07-23T12:04:41;7.00;;;6.10;;
16075;SDS011;8142;48.242;11.644;2022-07-23T12:07:26;6.67;;;5.90;;
16075;SDS011;8142;48.242;11.644;2022-07-23T12:09:58;6.90;;;6.07;;
16075;SDS011;8142;48.242;11.644;2022-07-23T12:12:26;6.80;;;5.90;;
16075;SDS011;8142;48.242;11.644;2022-07-23T12:14:59;6.37;;;5.77;;
16075;SDS011;8142;48.242;11.644;2022-07-23T12:17:29;6.40;;;5.70;;
16075;SDS011;8142;48.242;11.644;2022-07-23T12:19:57;6.07;;;5.47;;
16075;SDS011;8142;48.242;11.644;2022-07-23T12:22:24;8.03;;;5.67;;
16075;SDS011;8142;48.242;11.644;2022-07-23T12:25:02;6.13;;;5.53;;
16075;SDS011;8142;48.242;11.644;2022-07-23T12:27:31;6.60;;;6.00;;
16075;SDS011;8142;48.242;11.644;2022-07-23T12:29:57;6.10;;;5.50;;
16075;SDS011;8142;48.242;11.644;2022-07-23T12:32:25;6.47;;;5.70;;
16075;SDS011;8142;48.242;11.644;2022-07-23T12:35:05;8.00;;;5.87;;
16075;SDS011;8142;48.242;11.644;2022-07-23T12:37:34;6.90;;;6.20;;
16075;SDS011;8142;48.242;11.644;2022-07-23T12:42:52;6.13;;;5.53;;
16075;SDS011;8142;48.242;11.644;2022-07-23T12:45:22;6.40;;;5.70;;
16075;SDS011;8142;48.242;11.644;2022-07-23T12:50:34;7.47;;;5.87;;
16075;SDS011;8142;48.242;11.644;2022-07-23T12:53:08;6.67;;;5.70;;
16075;SDS011;8142;48.242;11.644;2022-07-23T12:55:36;6.40;;;5.50;;
16075;SDS011;8142;48.242;11.644;2022-07-23T12:58:07;6.50;;;5.90;;
16075;SDS011;8142;48.242;11.644;2022-07-23T13:03:36;6.57;;;5.97;;
16075;SDS011;8142;48.242;11.644;2022-07-23T13:06:08;6.13;;;5.50;;
16075;SDS011;8142;48.242;11.644;2022-07-23T13:08:37;6.67;;;5.80;;
16075;SDS011;8142;48.242;11.644;2022-07-23T13:11:05;6.60;;;5.93;;
16075;SDS011;8142;48.242;11.644;2022-07-23T13:13:32;7.27;;;6.37;;
16075;SDS011;8142;48.242;11.644;2022-07-23T13:16:00;6.33;;;5.73;;
16075;SDS011;8142;48.242;11.644;2022-07-23T13:18:27;6.53;;;5.80;;
16075;SDS011;8142;48.242;11.644;2022-07-23T13:20:53;6.10;;;5.50;;
16075;SDS011;8142;48.242;11.644;2022-07-23T13:23:20;6.47;;;5.77;;
16075;SDS011;8142;48.242;11.644;2022-07-23T13:25:46;7.00;;;5.77;;
16075;SDS011;8142;48.242;11.644;2022-07-23T13:28:13;6.63;;;5.80;;
16075;SDS011;8142;48.242;11.644;2022-07-23T13:30:40;7.23;;;5.80;;
16075;SDS011;8142;48.242;11.644;2022-07-23T13:33:07;8.43;;;6.60;;
16075;SDS011;8142;48.242;11.644;2022-07-23T13:35:34;6.33;;;5.73;;
16075;SDS011;8142;48.242;11.644;2022-07-23T13:38:01;6.60;;;5.47;;
16075;SDS011;8142;48.242;11.644;2022-07-23T13:40:28;7.07;;;5.80;;
16075;SDS011;8142;48.242;11.644;2022-07-23T13:42:54;6.37;;;5.73;;
16075;SDS011;8142;48.242;11.644;2022-07-23T13:45:20;6.80;;;6.10;;
16075;SDS011;8142;48.242;11.644;2022-07-23T13:47:46;8.90;;;6.27;;
16075;SDS011;8142;48.242;11.644;2022-07-23T13:50:12;6.73;;;6.00;;
16075;SDS011;8142;48.242;11.644;2022-07-23T13:52:41;7.27;;;6.50;;
16075;SDS011;8142;48.242;11.644;2022-07-23T13:55:08;6.50;;;5.90;;
16075;SDS011;8142;48.242;11.644;2022-07-23T13:57:34;6.97;;;5.97;;
16075;SDS011;8142;48.242;11.644;2022-07-23T14:00:00;8.63;;;6.87;;
16075;SDS011;8142;48.242;11.644;2022-07-23T14:02:27;7.40;;;6.30;;
16075;SDS011;8142;48.242;11.644;2022-07-23T14:04:53;8.20;;;6.37;;
16075;SDS011;8142;48.242;11.644;2022-07-23T14:07:19;7.20;;;6.30;;
16075;SDS011;8142;48.242;11.644;2022-07-23T14:09:45;6.83;;;6.20;;
16075;SDS011;8142;48.242;11.644;2022-07-23T14:12:11;7.30;;;6.33;;
16075;SDS011;8142;48.242;11.644;2022-07-23T14:14:37;7.10;;;6.40;;
16075;SDS011;8142;48.242;11.644;2022-07-23T14:17:03;6.77;;;6.03;;
16075;SDS011;8142;48.242;11.644;2022-07-23T14:19:29;7.43;;;6.67;;
16075;SDS011;8142;48.242;11.644;2022-07-23T14:21:55;7.23;;;6.50;;
16075;SDS011;8142;48.242;11.644;2022-07-23T14:24:21;9.03;;;6.77;;
16075;SDS011;8142;48.242;11.644;2022-07-23T14:26:46;7.07;;;6.37;;
16075;SDS011;8142;48.242;11.644;2022-07-23T14:29:12;7.67;;;6.70;;
16075;SDS011;8142;48.242;11.644;2022-07-23T14:31:38;7.20;;;6.47;;
16075;SDS011;8142;48.242;11.644;2022-07-23T14:34:04;7.47;;;6.77;;
16075;SDS011;8142;48.242;11.644;2022-07-23T14:36:30;7.27;;;6.53;;
16075;SDS011;8142;48.242;11.644;2022-07-23T14:38:56;7.33;;;6.63;;
16075;SDS011;8142;48.242;11.644;2022-07-23T14:41:22;9.57;;;6.80;;
16075;SDS011;8142;48.242;11.644;2022-07-23T14:43:48;6.37;;;5.77;;
16075;SDS011;8142;48.242;11.644;2022-07-23T14:46:14;7.07;;;6.10;;
16075;SDS011;8142;48.242;11.644;2022-07-23T14:48:40;7.00;;;6.23;;
16075;SDS011;8142;48.242;11.644;2022-07-23T14:51:06;8.13;;;6.40;;
16075;SDS011;8142;48.242;11.644;2022-07-23T14:53:32;7.03;;;6.33;;
16075;SDS011;8142;48.242;11.644;2022-07-23T14:55:58;8.80;;;6.33;;
16075;SDS011;8142;48.242;11.644;2022-07-23T14:58:24;7.40;;;6.47;;
16075;SDS011;8142;48.242;11.644;2022-07-23T15:00:52;8.00;;;6.47;;
16075;SDS011;8142;48.242;11.644;2022-07-23T15:03:19;7.03;;;6.33;;
16075;SDS011;8142;48.242;11.644;2022-07-23T15:05:45;7.67;;;6.57;;
16075;SDS011;8142;48.242;11.644;2022-07-23T15:08:11;7.40;;;6.37;;
16075;SDS011;8142;48.242;11.644;2022-07-23T15:10:37;7.23;;;6.37;;
16075;SDS011;8142;48.242;11.644;2022-07-23T15:13:03;7.03;;;6.33;;
16075;SDS011;8142;48.242;11.644;2022-07-23T15:15:29;7.47;;;6.70;;
16075;SDS011;8142;48.242;11.644;2022-07-23T15:17:55;7.57;;;6.37;;
16075;SDS011;8142;48.242;11.644;2022-07-23T15:20:21;6.93;;;6.23;;
16075;SDS011;8142;48.242;11.644;2022-07-23T15:22:47;7.23;;;6.40;;
16075;SDS011;8142;48.242;11.644;2022-07-23T15:25:13;7.80;;;7.00;;
16075;SDS011;8142;48.242;11.644;2022-07-23T15:27:39;6.87;;;6.00;;
16075;SDS011;8142;48.242;11.644;2022-07-23T15:30:05;7.57;;;6.37;;
16075;SDS011;8142;48.242;11.644;2022-07-23T15:32:31;7.30;;;5.33;;
16075;SDS011;8142;48.242;11.644;2022-07-23T15:34:57;6.07;;;4.30;;
16075;SDS011;8142;48.242;11.644;2022-07-23T15:37:25;6.33;;;4.60;;
16075;SDS011;8142;48.242;11.644;2022-07-23T15:39:51;8.80;;;4.70;;
16075;SDS011;8142;48.242;11.644;2022-07-23T15:42:17;7.27;;;5.50;;